createdAt,value
2017-10-08T00:00:30.070Z,20.53
2017-10-08T00:02:57.478Z,21.60
2017-10-08T00:05:24.905Z,22.30
2017-10-08T00:07:52.315Z,21.83
2017-10-08T00:10:19.726Z,21.97
2017-10-08T00:12:47.142Z,22.97
2017-10-08T00:15:14.577Z,22.53
2017-10-08T00:17:41.963Z,22.33
2017-10-08T00:20:09.379Z,23.10
2017-10-08T00:22:36.799Z,22.20
2017-10-08T00:25:04.204Z,21.20
2017-10-08T00:27:31.663Z,21.80
2017-10-08T00:29:59.088Z,22.90
2017-10-08T00:32:26.494Z,22.83
2017-10-08T00:34:53.936Z,22.20
2017-10-08T00:37:21.351Z,23.03
2017-10-08T00:39:48.774Z,22.10
2017-10-08T00:42:16.175Z,22.40
2017-10-08T00:44:43.599Z,22.70
2017-10-08T00:47:10.994Z,21.50
2017-10-08T00:49:38.472Z,22.47
2017-10-08T00:52:05.879Z,21.47
2017-10-08T00:54:33.271Z,21.17
2017-10-08T00:57:00.688Z,22.70
2017-10-08T00:59:28.149Z,21.47
2017-10-08T01:01:55.551Z,23.10
2017-10-08T01:04:23.008Z,20.70
2017-10-08T01:06:50.473Z,23.13
2017-10-08T01:09:17.934Z,21.57
2017-10-08T01:11:45.350Z,22.23
2017-10-08T01:14:12.759Z,21.30
2017-10-08T01:16:40.159Z,21.97
2017-10-08T01:19:07.570Z,22.17
2017-10-08T01:21:34.979Z,22.70
2017-10-08T01:24:02.393Z,21.50
2017-10-08T01:26:29.802Z,21.33
2017-10-08T01:28:57.230Z,22.07
2017-10-08T01:31:24.638Z,23.57
2017-10-08T01:33:52.074Z,25.57
2017-10-08T01:36:19.476Z,23.50
2017-10-08T01:38:46.903Z,25.90
2017-10-08T01:41:14.323Z,26.13
2017-10-08T01:43:41.733Z,26.17
2017-10-08T01:46:09.135Z,25.87
2017-10-08T01:48:36.567Z,25.50
2017-10-08T01:51:03.959Z,25.20
2017-10-08T01:53:31.386Z,24.67
2017-10-08T01:55:58.790Z,25.03
2017-10-08T01:58:26.194Z,26.73
2017-10-08T02:00:53.619Z,24.90
2017-10-08T02:03:21.116Z,26.50
2017-10-08T02:05:48.523Z,27.77
2017-10-08T02:08:15.951Z,27.27
2017-10-08T02:10:43.374Z,26.23
2017-10-08T02:13:10.790Z,25.80
2017-10-08T02:15:38.199Z,26.50
2017-10-08T02:18:05.619Z,26.00
2017-10-08T02:20:33.018Z,27.60
2017-10-08T02:23:00.422Z,26.10
2017-10-08T02:25:27.858Z,26.93
2017-10-08T02:27:55.256Z,27.10
2017-10-08T02:30:22.678Z,27.37
2017-10-08T02:32:50.092Z,26.93
2017-10-08T02:35:17.525Z,28.60
2017-10-08T02:37:44.927Z,26.77
2017-10-08T02:40:12.348Z,26.67
2017-10-08T02:42:39.746Z,25.70
2017-10-08T02:45:07.146Z,26.43
2017-10-08T02:47:34.582Z,27.10
2017-10-08T02:50:01.974Z,26.83
2017-10-08T02:52:29.389Z,27.63
2017-10-08T02:54:56.821Z,25.87
2017-10-08T02:57:24.214Z,27.30
2017-10-08T02:59:51.640Z,26.63
2017-10-08T03:02:19.059Z,25.30
2017-10-08T03:04:46.462Z,25.93
2017-10-08T03:07:13.881Z,26.67
2017-10-08T03:09:41.307Z,25.70
2017-10-08T03:12:08.719Z,25.57
2017-10-08T03:14:36.130Z,25.77
2017-10-08T03:17:03.563Z,25.83
2017-10-08T03:19:30.991Z,26.67
2017-10-08T03:21:58.399Z,26.27
2017-10-08T03:24:25.843Z,25.90
2017-10-08T03:26:53.243Z,25.10
2017-10-08T03:29:20.644Z,26.57
2017-10-08T03:31:48.076Z,26.80
2017-10-08T03:34:15.486Z,28.23
2017-10-08T03:36:42.878Z,26.37
2017-10-08T03:39:10.319Z,26.70
2017-10-08T03:41:37.749Z,23.70
2017-10-08T03:44:05.143Z,26.20
2017-10-08T03:46:32.578Z,25.23
2017-10-08T03:49:00.020Z,25.80
2017-10-08T03:51:27.409Z,25.10
2017-10-08T03:53:54.847Z,24.63
2017-10-08T03:56:22.255Z,24.97
2017-10-08T03:58:49.655Z,26.23
2017-10-08T04:01:17.068Z,25.60
2017-10-08T04:03:44.491Z,25.90
2017-10-08T04:06:11.901Z,25.70
2017-10-08T04:08:39.316Z,24.67
2017-10-08T04:11:06.715Z,24.47
2017-10-08T04:13:34.129Z,24.97
2017-10-08T04:16:01.552Z,24.90
2017-10-08T04:18:28.971Z,25.00
2017-10-08T04:20:56.374Z,24.23
2017-10-08T04:23:23.795Z,25.23
2017-10-08T04:25:51.194Z,24.63
2017-10-08T04:28:18.606Z,25.03
2017-10-08T04:30:46.033Z,26.30
2017-10-08T04:33:13.448Z,24.57
2017-10-08T04:35:40.856Z,24.17
2017-10-08T04:38:08.275Z,22.77
2017-10-08T04:40:35.686Z,23.63
2017-10-08T04:43:03.105Z,25.40
2017-10-08T04:45:30.517Z,22.80
2017-10-08T04:47:57.928Z,22.57
2017-10-08T04:50:25.335Z,23.40
2017-10-08T04:52:52.816Z,23.70
2017-10-08T04:55:20.211Z,23.70
2017-10-08T04:57:47.626Z,23.17
2017-10-08T05:00:15.044Z,23.63
2017-10-08T05:02:42.448Z,22.07
2017-10-08T05:05:09.881Z,23.63
2017-10-08T05:07:37.300Z,23.67
2017-10-08T05:10:04.744Z,24.57
2017-10-08T05:12:32.131Z,25.67
2017-10-08T05:14:59.563Z,25.57
2017-10-08T05:17:26.971Z,25.40
2017-10-08T05:19:54.375Z,24.37
2017-10-08T05:22:21.799Z,25.90
2017-10-08T05:24:49.204Z,26.53
2017-10-08T05:27:16.608Z,27.60
2017-10-08T05:29:44.065Z,25.50
2017-10-08T05:32:11.467Z,26.50
2017-10-08T05:34:38.882Z,27.77
2017-10-08T05:37:06.312Z,26.10
2017-10-08T05:39:33.728Z,27.87
2017-10-08T05:42:01.133Z,25.67
2017-10-08T05:44:28.565Z,27.13
2017-10-08T05:46:55.986Z,27.30
2017-10-08T05:49:23.391Z,26.20
2017-10-08T05:51:50.811Z,28.30
2017-10-08T05:54:18.239Z,26.23
2017-10-08T05:56:45.646Z,26.70
2017-10-08T05:59:13.174Z,27.40
2017-10-08T06:01:40.578Z,26.77
2017-10-08T06:04:07.974Z,26.57
2017-10-08T06:06:35.415Z,25.20
2017-10-08T06:09:02.834Z,27.70
2017-10-08T06:11:30.244Z,26.63
2017-10-08T06:13:57.761Z,27.70
2017-10-08T06:16:25.183Z,26.40
2017-10-08T06:18:52.584Z,26.17
2017-10-08T06:21:20.023Z,27.30
2017-10-08T06:23:47.434Z,26.70
2017-10-08T06:26:14.839Z,26.37
2017-10-08T06:28:42.261Z,26.40
2017-10-08T06:31:09.684Z,26.47
2017-10-08T06:33:37.115Z,26.73
2017-10-08T06:36:04.530Z,24.33
2017-10-08T06:38:31.931Z,24.37
2017-10-08T06:40:59.337Z,23.57
2017-10-08T06:43:26.767Z,24.13
2017-10-08T06:45:54.179Z,24.07
2017-10-08T06:48:21.577Z,23.40
2017-10-08T06:50:48.994Z,25.10
2017-10-08T06:53:16.400Z,26.07
2017-10-08T06:55:43.811Z,25.70
2017-10-08T06:58:11.240Z,26.63
2017-10-08T07:00:38.630Z,25.50
2017-10-08T07:03:06.028Z,23.87
2017-10-08T07:05:33.459Z,24.43
2017-10-08T07:08:00.867Z,24.40
2017-10-08T07:10:28.275Z,25.40
2017-10-08T07:12:55.703Z,23.33
2017-10-08T07:15:23.214Z,22.63
2017-10-08T07:17:50.639Z,23.67
2017-10-08T07:20:18.062Z,23.60
2017-10-08T07:22:45.485Z,21.97
2017-10-08T07:25:12.919Z,24.27
2017-10-08T07:27:40.343Z,21.80
2017-10-08T07:30:07.753Z,22.53
2017-10-08T07:32:35.167Z,22.20
2017-10-08T07:35:02.579Z,21.53
2017-10-08T07:37:30.028Z,21.63
2017-10-08T07:39:57.459Z,21.07
2017-10-08T07:42:24.926Z,20.43
2017-10-08T07:44:52.345Z,19.70
2017-10-08T07:47:19.784Z,19.33
2017-10-08T07:49:47.260Z,19.97
2017-10-08T07:52:14.663Z,17.73
2017-10-08T07:54:42.087Z,18.40
2017-10-08T07:57:09.520Z,18.47
2017-10-08T07:59:36.936Z,17.33
2017-10-08T08:02:04.335Z,16.60
2017-10-08T08:04:31.783Z,17.73
2017-10-08T08:06:59.231Z,17.23
2017-10-08T08:09:26.651Z,16.10
2017-10-08T08:11:54.079Z,14.87
2017-10-08T08:14:21.479Z,15.10
2017-10-08T08:16:48.894Z,15.70
2017-10-08T08:19:16.356Z,13.97
2017-10-08T08:21:43.815Z,14.10
2017-10-08T08:24:11.220Z,13.67
2017-10-08T08:26:38.645Z,13.47
2017-10-08T08:29:06.061Z,14.17
2017-10-08T08:31:35.383Z,14.00
2017-10-08T08:34:02.807Z,13.73
2017-10-08T08:36:30.214Z,13.30
2017-10-08T08:38:57.640Z,13.47
2017-10-08T08:41:25.053Z,14.00
2017-10-08T08:43:52.450Z,13.80
2017-10-08T08:46:19.996Z,14.50
2017-10-08T08:48:47.439Z,13.97
2017-10-08T08:51:14.855Z,13.80
2017-10-08T08:53:42.291Z,13.73
2017-10-08T08:56:09.735Z,14.17
2017-10-08T08:58:37.164Z,13.70
2017-10-08T09:01:05.215Z,13.30
2017-10-08T09:03:32.779Z,14.87
2017-10-08T09:06:00.184Z,15.00
2017-10-08T09:08:27.611Z,14.83
2017-10-08T09:10:55.024Z,12.97
2017-10-08T09:13:23.444Z,14.30
2017-10-08T09:15:56.133Z,13.80
2017-10-08T09:18:23.587Z,12.77
2017-10-08T09:20:51.087Z,12.97
2017-10-08T09:23:20.223Z,13.00
2017-10-08T09:25:47.703Z,12.93
2017-10-08T09:28:15.115Z,12.20
2017-10-08T09:30:42.566Z,11.77
2017-10-08T09:33:09.968Z,11.13
2017-10-08T09:35:37.394Z,11.00
2017-10-08T09:38:04.853Z,10.67
2017-10-08T09:40:32.256Z,10.00
2017-10-08T09:42:59.671Z,10.50
2017-10-08T09:45:27.091Z,10.10
2017-10-08T09:47:54.499Z,8.30
2017-10-08T09:50:21.937Z,9.37
2017-10-08T09:52:49.415Z,10.80
2017-10-08T09:55:16.854Z,9.87
2017-10-08T09:57:44.374Z,10.37
2017-10-08T10:00:15.351Z,11.00
2017-10-08T10:02:44.095Z,10.70
2017-10-08T10:05:11.527Z,10.90
2017-10-08T10:07:40.731Z,10.80
2017-10-08T10:10:08.144Z,10.33
2017-10-08T10:12:35.558Z,8.83
2017-10-08T10:15:11.616Z,8.30
2017-10-08T10:17:39.085Z,8.63
2017-10-08T10:20:06.519Z,7.90
2017-10-08T10:22:33.963Z,9.20
2017-10-08T10:25:01.388Z,7.80
2017-10-08T10:27:29.735Z,7.73
2017-10-08T10:30:03.611Z,8.37
2017-10-08T10:32:31.047Z,7.50
2017-10-08T10:34:58.543Z,6.90
2017-10-08T10:37:25.956Z,7.70
2017-10-08T10:39:53.359Z,8.70
2017-10-08T10:42:20.775Z,8.37
2017-10-08T10:44:48.218Z,8.90
2017-10-08T10:47:16.391Z,9.00
2017-10-08T10:49:44.579Z,8.00
2017-10-08T10:52:12.931Z,7.93
2017-10-08T10:54:41.495Z,8.03
2017-10-08T10:57:08.907Z,7.47
2017-10-08T10:59:37.204Z,8.73
2017-10-08T11:02:04.607Z,8.80
2017-10-08T11:04:32.016Z,8.13
2017-10-08T11:06:59.464Z,7.60
2017-10-08T11:09:26.874Z,7.70
2017-10-08T11:11:54.303Z,7.93
2017-10-08T11:14:21.782Z,7.17
2017-10-08T11:16:49.176Z,7.87
2017-10-08T11:19:16.589Z,8.40
2017-10-08T11:21:44.020Z,7.60
2017-10-08T11:24:11.416Z,6.80
2017-10-08T11:26:38.812Z,7.10
2017-10-08T11:29:06.230Z,7.83
2017-10-08T11:31:33.631Z,7.33
2017-10-08T11:34:01.047Z,8.27
2017-10-08T11:36:28.481Z,8.17
2017-10-08T11:38:55.872Z,7.93
2017-10-08T11:41:23.267Z,7.70
2017-10-08T11:43:50.704Z,8.27
2017-10-08T11:46:18.108Z,6.90
2017-10-08T11:48:45.538Z,7.37
2017-10-08T11:51:12.951Z,7.30
2017-10-08T11:53:40.351Z,7.00
2017-10-08T11:56:07.759Z,7.07
2017-10-08T11:58:35.171Z,6.70
2017-10-08T12:01:02.623Z,5.90
2017-10-08T12:03:30.061Z,6.23
2017-10-08T12:05:57.480Z,7.63
2017-10-08T12:08:24.890Z,7.40
2017-10-08T12:10:52.286Z,7.40
2017-10-08T12:13:19.705Z,7.53
2017-10-08T12:15:47.146Z,7.40
2017-10-08T12:18:14.557Z,7.50
2017-10-08T12:20:41.989Z,8.13
2017-10-08T12:23:09.423Z,7.70
2017-10-08T12:25:36.815Z,7.73
2017-10-08T12:28:04.224Z,7.53
2017-10-08T12:30:31.644Z,8.13
2017-10-08T12:32:59.030Z,8.07
2017-10-08T12:35:26.504Z,7.53
2017-10-08T12:37:53.925Z,7.50
2017-10-08T12:40:21.323Z,8.40
2017-10-08T12:42:48.747Z,8.60
2017-10-08T12:45:16.201Z,9.60
2017-10-08T12:47:43.598Z,8.30
2017-10-08T12:50:11.015Z,8.57
2017-10-08T12:52:38.425Z,9.60
2017-10-08T12:55:06.653Z,10.60
2017-10-08T12:57:34.359Z,11.67
2017-10-08T13:00:01.896Z,11.50
2017-10-08T13:02:29.307Z,11.17
2017-10-08T13:04:56.731Z,10.93
2017-10-08T13:07:24.371Z,11.60
2017-10-08T13:09:51.792Z,11.20
2017-10-08T13:12:19.247Z,11.10
2017-10-08T13:14:46.661Z,10.60
2017-10-08T13:17:14.066Z,10.53
2017-10-08T13:19:41.828Z,11.00
2017-10-08T13:22:09.225Z,9.60
2017-10-08T13:24:36.633Z,9.93
2017-10-08T13:27:04.048Z,10.40
2017-10-08T13:29:31.456Z,10.23
2017-10-08T13:31:58.876Z,9.90
2017-10-08T13:34:26.291Z,9.70
2017-10-08T13:36:53.716Z,9.90
2017-10-08T13:39:21.139Z,9.80
2017-10-08T13:41:48.591Z,9.30
2017-10-08T13:44:15.993Z,8.97
2017-10-08T13:46:43.437Z,9.83
2017-10-08T13:49:10.890Z,8.80
2017-10-08T13:51:38.338Z,8.57
2017-10-08T13:54:05.734Z,9.10
2017-10-08T13:56:33.162Z,9.40
2017-10-08T13:59:00.575Z,9.73
2017-10-08T14:01:27.988Z,9.37
2017-10-08T14:03:55.415Z,9.00
2017-10-08T14:06:22.811Z,9.00
2017-10-08T14:08:50.268Z,9.47
2017-10-08T14:11:17.705Z,9.20
2017-10-08T14:13:45.111Z,9.13
2017-10-08T14:16:12.531Z,9.53
2017-10-08T14:18:39.935Z,8.63
2017-10-08T14:21:07.490Z,9.80
2017-10-08T14:23:34.938Z,9.00
2017-10-08T14:26:02.375Z,8.90
2017-10-08T14:28:29.821Z,9.77
2017-10-08T14:30:57.235Z,9.17
2017-10-08T14:33:24.651Z,8.90
2017-10-08T14:35:53.150Z,10.10
2017-10-08T14:38:21.844Z,9.00
2017-10-08T14:40:50.007Z,8.87
2017-10-08T14:43:18.280Z,8.23
2017-10-08T14:45:45.667Z,8.57
2017-10-08T14:48:13.103Z,9.43
2017-10-08T14:50:41.491Z,9.03
2017-10-08T14:53:08.919Z,8.77
2017-10-08T14:55:36.339Z,8.80
2017-10-08T14:58:03.747Z,8.50
2017-10-08T15:00:31.144Z,8.53
2017-10-08T15:03:02.115Z,8.53
2017-10-08T15:05:29.507Z,8.80
2017-10-08T15:07:56.911Z,8.97
2017-10-08T15:10:24.390Z,9.40
2017-10-08T15:12:52.665Z,9.50
2017-10-08T15:15:34.959Z,9.37
2017-10-08T15:18:02.436Z,10.03
2017-10-08T15:20:29.832Z,10.00
2017-10-08T15:22:57.258Z,10.90
2017-10-08T15:25:24.660Z,9.80
2017-10-08T15:27:53.187Z,9.60
2017-10-08T15:30:20.614Z,9.53
2017-10-08T15:32:48.019Z,9.77
2017-10-08T15:35:15.414Z,9.43
2017-10-08T15:37:42.835Z,10.00
2017-10-08T15:40:10.227Z,9.73
2017-10-08T15:42:37.650Z,10.60
2017-10-08T15:45:06.539Z,10.37
2017-10-08T15:47:33.983Z,10.53
2017-10-08T15:50:01.371Z,9.43
2017-10-08T15:52:29.824Z,9.77
2017-10-08T15:54:57.235Z,10.70
2017-10-08T15:57:24.643Z,11.80
2017-10-08T15:59:52.062Z,12.00
2017-10-08T16:02:19.464Z,11.40
2017-10-08T16:04:46.889Z,10.80
2017-10-08T16:07:14.323Z,11.90
2017-10-08T16:09:41.788Z,11.80
2017-10-08T16:12:09.191Z,13.63
2017-10-08T16:14:36.618Z,12.70
2017-10-08T16:17:04.019Z,11.53
2017-10-08T16:19:31.424Z,10.80
2017-10-08T16:21:58.848Z,10.07
2017-10-08T16:24:26.239Z,9.20
2017-10-08T16:26:54.160Z,10.00
2017-10-08T16:29:21.562Z,9.87
2017-10-08T16:31:48.964Z,9.80
2017-10-08T16:34:16.812Z,8.37
2017-10-08T16:36:44.227Z,9.53
2017-10-08T16:39:11.615Z,8.93
2017-10-08T16:41:39.015Z,9.40
2017-10-08T16:44:06.438Z,9.53
2017-10-08T16:46:33.823Z,9.30
2017-10-08T16:49:01.460Z,9.03
2017-10-08T16:51:28.860Z,8.90
2017-10-08T16:53:56.268Z,8.50
2017-10-08T16:56:23.666Z,9.50
2017-10-08T16:58:51.076Z,8.87
2017-10-08T17:01:18.489Z,9.40
2017-10-08T17:03:47.845Z,9.50
2017-10-08T17:06:15.256Z,8.50
2017-10-08T17:08:42.652Z,9.00
2017-10-08T17:11:10.059Z,8.33
2017-10-08T17:13:37.463Z,9.30
2017-10-08T17:16:04.859Z,15.30
2017-10-08T17:18:32.267Z,14.70
2017-10-08T17:20:59.783Z,12.90
2017-10-08T17:23:27.192Z,13.50
2017-10-08T17:25:54.595Z,12.50
2017-10-08T17:28:22.019Z,11.60
2017-10-08T17:30:49.420Z,10.23
2017-10-08T17:33:16.838Z,10.77
2017-10-08T17:35:44.247Z,9.60
2017-10-08T17:38:11.648Z,9.97
2017-10-08T17:40:39.050Z,9.80
2017-10-08T17:43:06.465Z,9.60
2017-10-08T17:45:33.859Z,8.60
2017-10-08T17:48:01.264Z,9.00
2017-10-08T17:50:28.740Z,11.30
2017-10-08T17:52:56.144Z,12.10
2017-10-08T17:55:23.556Z,11.53
2017-10-08T17:57:50.992Z,10.80
2017-10-08T18:00:18.403Z,11.27
2017-10-08T18:02:45.811Z,10.53
2017-10-08T18:05:13.247Z,10.37
2017-10-08T18:07:40.654Z,10.40
2017-10-08T18:10:08.077Z,11.00
2017-10-08T18:12:35.508Z,11.00
2017-10-08T18:15:02.920Z,10.67
2017-10-08T18:17:30.349Z,10.80
2017-10-08T18:19:57.761Z,11.27
2017-10-08T18:22:25.172Z,9.87
2017-10-08T18:24:52.587Z,10.83
2017-10-08T18:27:20.035Z,10.40
2017-10-08T18:29:47.444Z,10.17
2017-10-08T18:32:14.854Z,10.33
2017-10-08T18:34:42.268Z,10.63
2017-10-08T18:37:09.671Z,12.10
2017-10-08T18:39:37.080Z,11.73
2017-10-08T18:42:04.504Z,11.70
2017-10-08T18:44:31.960Z,11.67
2017-10-08T18:46:59.385Z,12.07
2017-10-08T18:49:26.812Z,11.47
2017-10-08T18:51:54.217Z,11.60
2017-10-08T18:54:21.651Z,11.70
2017-10-08T18:56:49.155Z,11.40
2017-10-08T18:59:16.559Z,10.80
2017-10-08T19:01:44.028Z,11.50
2017-10-08T19:04:11.456Z,11.10
2017-10-08T19:06:38.879Z,12.27
2017-10-08T19:09:06.323Z,10.40
2017-10-08T19:11:33.743Z,10.80
2017-10-08T19:14:01.176Z,11.13
2017-10-08T19:16:28.589Z,9.80
2017-10-08T19:18:55.995Z,11.87
2017-10-08T19:21:23.405Z,11.03
2017-10-08T19:23:50.804Z,11.53
2017-10-08T19:26:18.211Z,11.77
2017-10-08T19:28:45.626Z,12.37
2017-10-08T19:31:13.033Z,12.83
2017-10-08T19:33:40.459Z,13.70
2017-10-08T19:36:07.859Z,12.20
2017-10-08T19:38:35.272Z,13.23
2017-10-08T19:41:02.695Z,12.40
2017-10-08T19:43:30.099Z,13.60
2017-10-08T19:45:57.499Z,13.63
2017-10-08T19:48:24.939Z,12.50
2017-10-08T19:50:52.347Z,14.73
2017-10-08T19:53:19.751Z,14.27
2017-10-08T19:55:47.171Z,15.77
2017-10-08T19:58:14.575Z,16.17
2017-10-08T20:00:41.975Z,16.03
2017-10-08T20:03:09.387Z,15.93
2017-10-08T20:05:36.787Z,15.23
2017-10-08T20:08:04.192Z,16.73
2017-10-08T20:10:31.607Z,15.30
2017-10-08T20:12:58.999Z,14.27
2017-10-08T20:15:26.403Z,16.60
2017-10-08T20:17:53.840Z,15.10
2017-10-08T20:20:21.256Z,17.20
2017-10-08T20:22:48.655Z,15.90
2017-10-08T20:25:16.084Z,14.63
2017-10-08T20:27:44.379Z,15.63
2017-10-08T20:30:11.786Z,14.80
2017-10-08T20:32:39.211Z,15.10
2017-10-08T20:35:07.451Z,15.23
2017-10-08T20:37:34.860Z,15.03
2017-10-08T20:40:02.301Z,15.27
2017-10-08T20:42:29.695Z,14.20
2017-10-08T20:44:57.103Z,14.33
2017-10-08T20:47:24.515Z,15.60
2017-10-08T20:49:51.937Z,15.90
2017-10-08T20:52:19.338Z,16.73
2017-10-08T20:54:46.751Z,17.80
2017-10-08T20:57:14.151Z,16.10
2017-10-08T20:59:41.557Z,16.50
2017-10-08T21:02:08.983Z,15.97
2017-10-08T21:04:36.379Z,18.27
2017-10-08T21:07:03.780Z,15.73
2017-10-08T21:09:31.192Z,16.70
2017-10-08T21:11:58.608Z,16.10
2017-10-08T21:14:25.999Z,17.30
2017-10-08T21:16:53.415Z,17.30
2017-10-08T21:19:20.811Z,17.07
2017-10-08T21:21:48.212Z,16.60
2017-10-08T21:24:15.633Z,16.83
2017-10-08T21:26:43.039Z,15.93
2017-10-08T21:29:10.439Z,16.87
2017-10-08T21:31:37.858Z,15.10
2017-10-08T21:34:05.259Z,19.40
2017-10-08T21:36:32.676Z,15.53
2017-10-08T21:39:00.146Z,17.37
2017-10-08T21:41:27.534Z,17.47
2017-10-08T21:43:54.938Z,16.80
2017-10-08T21:46:22.354Z,16.87
2017-10-08T21:48:49.765Z,16.60
2017-10-08T21:51:17.168Z,15.53
2017-10-08T21:53:44.588Z,16.40
2017-10-08T21:56:12.797Z,16.13
2017-10-08T21:58:40.203Z,16.97
2017-10-08T22:01:12.418Z,16.67
2017-10-08T22:03:39.825Z,16.10
2017-10-08T22:06:07.227Z,16.40
2017-10-08T22:08:34.642Z,16.77
2017-10-08T22:11:02.043Z,16.10
2017-10-08T22:13:29.443Z,16.63
2017-10-08T22:15:56.863Z,15.67
2017-10-08T22:18:24.263Z,16.97
2017-10-08T22:20:51.660Z,16.23
2017-10-08T22:23:19.076Z,17.43
2017-10-08T22:25:46.472Z,16.27
2017-10-08T22:28:13.875Z,16.90
2017-10-08T22:30:41.297Z,16.77
2017-10-08T22:33:08.696Z,18.07
2017-10-08T22:35:36.101Z,17.53
2017-10-08T22:38:03.517Z,17.40
2017-10-08T22:40:30.931Z,17.20
2017-10-08T22:42:58.338Z,17.07
2017-10-08T22:45:25.748Z,16.87
2017-10-08T22:47:53.152Z,16.13
2017-10-08T22:50:20.551Z,16.63
2017-10-08T22:52:47.972Z,16.27
2017-10-08T22:55:15.367Z,17.50
2017-10-08T22:57:42.791Z,17.80
2017-10-08T23:00:10.204Z,16.50
2017-10-08T23:02:37.604Z,17.10
2017-10-08T23:05:05.007Z,17.03
2017-10-08T23:07:32.422Z,18.20
2017-10-08T23:09:59.832Z,17.50
2017-10-08T23:12:27.246Z,17.53
2017-10-08T23:14:54.663Z,18.10
2017-10-08T23:17:22.065Z,18.00
2017-10-08T23:19:49.464Z,18.47
2017-10-08T23:22:16.881Z,17.70
2017-10-08T23:24:44.294Z,18.10
2017-10-08T23:27:11.695Z,18.37
2017-10-08T23:29:39.119Z,17.87
2017-10-08T23:32:06.526Z,17.93
2017-10-08T23:34:33.923Z,18.60
2017-10-08T23:37:01.343Z,17.90
2017-10-08T23:39:28.758Z,18.03
2017-10-08T23:41:56.225Z,16.70
2017-10-08T23:44:23.639Z,17.70
2017-10-08T23:46:51.045Z,17.63
2017-10-08T23:49:18.465Z,17.87
2017-10-08T23:51:45.876Z,17.47
2017-10-08T23:54:13.318Z,18.27
2017-10-08T23:56:40.716Z,16.93
2017-10-08T23:59:08.139Z,17.20
